createdAt,value
2023-02-01T00:00:35.780Z,100.00
2023-02-01T00:03:38.031Z,100.00
2023-02-01T00:06:39.724Z,100.00
2023-02-01T00:09:41.310Z,100.00
2023-02-01T00:12:44.422Z,100.00
2023-02-01T00:15:46.279Z,100.00
2023-02-01T00:18:48.412Z,100.00
2023-02-01T00:21:50.338Z,100.00
2023-02-01T00:24:51.999Z,100.00
2023-02-01T00:27:59.858Z,100.00
2023-02-01T00:31:02.938Z,100.00
2023-02-01T00:34:04.788Z,100.00
2023-02-01T00:37:06.360Z,100.00
2023-02-01T00:40:08.824Z,100.00
2023-02-01T00:43:12.007Z,100.00
2023-02-01T00:46:14.330Z,100.00
2023-02-01T00:49:15.912Z,100.00
2023-02-01T00:52:17.429Z,100.00
2023-02-01T00:55:19.029Z,100.00
2023-02-01T00:58:23.606Z,100.00
2023-02-01T01:01:26.195Z,100.00
2023-02-01T01:04:28.416Z,100.00
2023-02-01T01:07:30.210Z,100.00
2023-02-01T01:10:32.682Z,100.00
2023-02-01T01:13:36.010Z,100.00
2023-02-01T01:16:37.758Z,100.00
2023-02-01T01:19:39.699Z,100.00
2023-02-01T01:22:41.575Z,100.00
2023-02-01T01:25:43.210Z,100.00
2023-02-01T01:28:46.273Z,100.00
2023-02-01T01:31:48.235Z,100.00
2023-02-01T01:34:49.856Z,100.00
2023-02-01T01:37:51.893Z,100.00
2023-02-01T01:41:00.054Z,100.00
2023-02-01T01:44:04.216Z,100.00
2023-02-01T01:47:05.858Z,100.00
2023-02-01T01:50:08.971Z,100.00
2023-02-01T01:53:12.782Z,100.00
2023-02-01T01:56:15.250Z,100.00
2023-02-01T01:59:18.686Z,100.00
2023-02-01T02:02:20.501Z,100.00
2023-02-01T02:05:22.466Z,100.00
2023-02-01T02:08:24.762Z,100.00
2023-02-01T02:11:26.325Z,100.00
2023-02-01T02:14:31.299Z,100.00
2023-02-01T02:17:35.370Z,100.00
2023-02-01T02:21:01.132Z,100.00
2023-02-01T02:24:30.193Z,100.00
2023-02-01T02:27:40.714Z,100.00
2023-02-01T02:30:53.510Z,100.00
2023-02-01T02:34:00.167Z,100.00
2023-02-01T02:37:05.336Z,99.99
2023-02-01T02:40:12.796Z,100.00
2023-02-01T02:43:38.686Z,100.00
2023-02-01T02:47:00.715Z,100.00
2023-02-01T02:50:29.264Z,99.92
2023-02-01T02:53:52.133Z,100.00
2023-02-01T02:57:13.759Z,100.00
2023-02-01T03:00:35.128Z,100.00
2023-02-01T03:03:56.578Z,100.00
2023-02-01T03:07:13.726Z,100.00
2023-02-01T03:10:19.334Z,100.00
2023-02-01T03:13:29.395Z,100.00
2023-02-01T03:16:33.213Z,100.00
2023-02-01T03:19:36.862Z,100.00
2023-02-01T03:22:41.657Z,100.00
2023-02-01T03:25:43.403Z,100.00
2023-02-01T03:28:49.554Z,100.00
2023-02-01T03:31:51.466Z,100.00
2023-02-01T03:34:54.703Z,100.00
2023-02-01T03:38:02.496Z,100.00
2023-02-01T03:41:09.722Z,100.00
2023-02-01T03:44:14.632Z,99.84
2023-02-01T03:47:21.125Z,100.00
2023-02-01T03:50:24.964Z,99.57
2023-02-01T03:53:29.090Z,99.09
2023-02-01T03:56:32.807Z,99.00
2023-02-01T03:59:34.627Z,99.27
2023-02-01T04:02:36.361Z,98.85
2023-02-01T04:05:38.153Z,98.82
2023-02-01T04:08:44.434Z,98.30
2023-02-01T04:11:46.429Z,98.09
2023-02-01T04:14:48.095Z,97.39
2023-02-01T04:17:49.795Z,97.61
2023-02-01T04:20:51.507Z,97.22
2023-02-01T04:23:55.130Z,97.14
2023-02-01T04:26:56.749Z,97.53
2023-02-01T04:29:58.724Z,97.43
2023-02-01T04:33:00.318Z,97.38
2023-02-01T04:36:01.895Z,97.95
2023-02-01T04:39:04.946Z,97.89
2023-02-01T04:42:06.921Z,99.31
2023-02-01T04:45:09.987Z,99.60
2023-02-01T04:48:11.766Z,99.61
2023-02-01T04:51:13.878Z,99.57
2023-02-01T04:54:17.044Z,100.00
2023-02-01T04:57:18.699Z,100.00
2023-02-01T05:00:20.929Z,100.00
2023-02-01T05:03:22.605Z,100.00
2023-02-01T05:06:24.355Z,100.00
2023-02-01T05:09:27.369Z,100.00
2023-02-01T05:12:48.203Z,100.00
2023-02-01T05:15:51.364Z,100.00
2023-02-01T05:18:53.082Z,100.00
2023-02-01T05:21:54.827Z,100.00
2023-02-01T05:24:57.826Z,100.00
2023-02-01T05:27:59.696Z,100.00
2023-02-01T05:31:01.565Z,100.00
2023-02-01T05:34:03.533Z,100.00
2023-02-01T05:37:05.039Z,100.00
2023-02-01T05:40:11.541Z,100.00
2023-02-01T05:43:13.158Z,100.00
2023-02-01T05:46:15.276Z,100.00
2023-02-01T05:49:16.882Z,100.00
2023-02-01T05:52:21.316Z,100.00
2023-02-01T05:55:24.394Z,100.00
2023-02-01T05:58:26.086Z,100.00
2023-02-01T06:01:27.604Z,100.00
2023-02-01T06:04:29.935Z,100.00
2023-02-01T06:07:33.602Z,100.00
2023-02-01T06:10:36.689Z,100.00
2023-02-01T06:13:39.780Z,100.00
2023-02-01T06:16:41.363Z,100.00
2023-02-01T06:19:44.987Z,100.00
2023-02-01T06:22:46.657Z,100.00
2023-02-01T06:25:49.838Z,100.00
2023-02-01T06:28:51.460Z,100.00
2023-02-01T06:31:53.082Z,100.00
2023-02-01T06:34:54.718Z,100.00
2023-02-01T06:37:56.340Z,100.00
2023-02-01T06:40:59.275Z,100.00
2023-02-01T06:44:05.105Z,100.00
2023-02-01T06:47:09.143Z,100.00
2023-02-01T06:50:11.278Z,100.00
2023-02-01T06:53:13.124Z,100.00
2023-02-01T06:56:16.672Z,100.00
2023-02-01T06:59:18.461Z,100.00
2023-02-01T07:02:20.236Z,100.00
2023-02-01T07:05:22.001Z,100.00
2023-02-01T07:08:23.601Z,100.00
2023-02-01T07:11:28.454Z,100.00
2023-02-01T07:14:30.113Z,100.00
2023-02-01T07:17:31.800Z,100.00
2023-02-01T07:20:33.390Z,100.00
2023-02-01T07:23:35.231Z,100.00
2023-02-01T07:26:38.263Z,100.00
2023-02-01T07:29:40.010Z,100.00
2023-02-01T07:32:42.363Z,100.00
2023-02-01T07:35:43.914Z,100.00
2023-02-01T07:38:48.842Z,100.00
2023-02-01T07:41:51.805Z,100.00
2023-02-01T07:44:53.370Z,100.00
2023-02-01T07:47:54.949Z,100.00
2023-02-01T07:51:00.203Z,100.00
2023-02-01T07:54:01.826Z,100.00
2023-02-01T07:57:04.945Z,100.00
2023-02-01T08:00:25.754Z,100.00
2023-02-01T08:03:27.353Z,100.00
2023-02-01T08:06:30.074Z,100.00
2023-02-01T08:09:32.157Z,100.00
2023-02-01T08:12:35.141Z,100.00
2023-02-01T08:15:36.958Z,100.00
2023-02-01T08:18:39.446Z,100.00
2023-02-01T08:21:41.177Z,100.00
2023-02-01T08:24:42.999Z,100.00
2023-02-01T08:27:46.675Z,100.00
2023-02-01T08:30:48.294Z,100.00
2023-02-01T08:33:52.489Z,100.00
2023-02-01T08:36:58.591Z,100.00
2023-02-01T08:40:00.334Z,100.00
2023-02-01T08:43:03.435Z,100.00
2023-02-01T08:46:05.156Z,100.00
2023-02-01T08:49:08.698Z,100.00
2023-02-01T08:52:15.812Z,100.00
2023-02-01T08:55:18.486Z,100.00
2023-02-01T08:58:22.808Z,100.00
2023-02-01T09:01:24.556Z,100.00
2023-02-01T09:04:26.430Z,100.00
2023-02-01T09:07:28.207Z,100.00
2023-02-01T09:10:35.145Z,100.00
2023-02-01T09:13:38.555Z,100.00
2023-02-01T09:16:40.126Z,100.00
2023-02-01T09:19:43.063Z,100.00
2023-02-01T09:22:44.811Z,100.00
2023-02-01T09:25:46.520Z,100.00
2023-02-01T09:28:49.427Z,100.00
2023-02-01T09:32:03.024Z,100.00
2023-02-01T09:35:05.612Z,100.00
2023-02-01T09:38:07.229Z,99.78
2023-02-01T09:41:18.285Z,100.00
2023-02-01T09:44:42.536Z,99.41
2023-02-01T09:47:49.218Z,98.80
2023-02-01T09:50:54.968Z,99.27
2023-02-01T09:54:00.792Z,98.80
2023-02-01T09:57:07.486Z,98.29
2023-02-01T10:00:16.435Z,98.48
2023-02-01T10:03:18.270Z,98.72
2023-02-01T10:06:35.478Z,98.25
2023-02-01T10:09:51.872Z,96.16
2023-02-01T10:13:09.137Z,96.62
2023-02-01T10:16:18.867Z,97.68
2023-02-01T10:19:28.802Z,97.71
2023-02-01T10:22:58.975Z,97.34
2023-02-01T10:26:03.175Z,98.10
2023-02-01T10:29:05.729Z,98.05
2023-02-01T10:32:18.607Z,98.12
2023-02-01T10:35:24.198Z,97.66
2023-02-01T10:38:27.763Z,96.44
2023-02-01T10:41:32.554Z,96.96
2023-02-01T10:44:38.259Z,96.44
2023-02-01T10:47:41.688Z,96.77
2023-02-01T10:50:47.355Z,97.25
2023-02-01T10:53:51.548Z,97.46
2023-02-01T10:56:54.750Z,97.01
2023-02-01T10:59:56.722Z,97.29
2023-02-01T11:02:59.733Z,96.91
2023-02-01T11:06:01.881Z,97.53
2023-02-01T11:09:11.533Z,97.23
2023-02-01T11:12:26.543Z,97.74
2023-02-01T11:15:28.257Z,97.22
2023-02-01T11:18:32.785Z,97.56
2023-02-01T11:21:35.323Z,96.30
2023-02-01T11:24:39.191Z,96.57
2023-02-01T11:27:53.167Z,96.51
2023-02-01T11:30:57.684Z,96.81
2023-02-01T11:34:13.613Z,97.29
2023-02-01T11:37:18.511Z,97.72
2023-02-01T11:40:25.154Z,97.17
2023-02-01T11:43:28.392Z,97.41
2023-02-01T11:46:31.769Z,97.33
2023-02-01T11:49:35.161Z,98.50
2023-02-01T11:52:46.612Z,98.43
2023-02-01T11:55:55.062Z,97.48
2023-02-01T11:59:06.977Z,97.71
2023-02-01T12:02:26.677Z,98.28
2023-02-01T12:05:41.050Z,98.04
2023-02-01T12:08:56.137Z,97.36
2023-02-01T12:12:00.303Z,98.18
2023-02-01T12:15:19.984Z,99.66
2023-02-01T12:18:33.758Z,100.00
2023-02-01T12:21:43.467Z,100.00
2023-02-01T12:24:55.729Z,100.00
2023-02-01T12:28:04.771Z,100.00
2023-02-01T12:31:15.977Z,100.00
2023-02-01T12:34:30.449Z,100.00
2023-02-01T12:37:45.340Z,100.00
2023-02-01T12:40:54.833Z,100.00
2023-02-01T12:43:58.909Z,100.00
2023-02-01T12:47:04.657Z,100.00
2023-02-01T12:50:13.598Z,100.00
2023-02-01T12:53:21.670Z,100.00
2023-02-01T12:56:25.449Z,100.00
2023-02-01T12:59:31.465Z,100.00
2023-02-01T13:02:38.982Z,100.00
2023-02-01T13:05:59.927Z,100.00
2023-02-01T13:09:08.758Z,100.00
2023-02-01T13:12:13.666Z,100.00
2023-02-01T13:15:17.502Z,100.00
2023-02-01T13:18:20.166Z,100.00
2023-02-01T13:21:24.957Z,100.00
2023-02-01T13:24:32.636Z,100.00
2023-02-01T13:27:35.684Z,100.00
2023-02-01T13:30:43.889Z,100.00
2023-02-01T13:34:03.430Z,100.00
2023-02-01T13:37:19.796Z,100.00
2023-02-01T13:40:35.002Z,100.00
2023-02-01T13:43:39.893Z,100.00
2023-02-01T13:46:43.219Z,100.00
2023-02-01T13:49:48.362Z,100.00
2023-02-01T13:52:53.722Z,100.00
2023-02-01T13:56:04.472Z,100.00
2023-02-01T13:59:37.230Z,100.00
2023-02-01T14:03:03.062Z,100.00
2023-02-01T14:06:15.651Z,100.00
2023-02-01T14:09:20.593Z,100.00
2023-02-01T14:12:41.276Z,100.00
2023-02-01T14:16:07.492Z,100.00
2023-02-01T14:19:10.471Z,100.00
2023-02-01T14:22:27.217Z,100.00
2023-02-01T14:25:33.394Z,100.00
2023-02-01T14:28:37.749Z,100.00
2023-02-01T14:31:46.097Z,100.00
2023-02-01T14:34:53.596Z,100.00
2023-02-01T14:38:01.050Z,100.00
2023-02-01T14:41:22.706Z,100.00
2023-02-01T14:44:26.392Z,100.00
2023-02-01T14:47:31.992Z,100.00
2023-02-01T14:50:38.572Z,100.00
2023-02-01T14:53:41.233Z,100.00
2023-02-01T14:56:43.202Z,100.00
2023-02-01T14:59:46.656Z,100.00
2023-02-01T15:02:52.912Z,100.00
2023-02-01T15:05:58.769Z,100.00
2023-02-01T15:09:03.117Z,100.00
2023-02-01T15:12:25.126Z,100.00
2023-02-01T15:15:27.533Z,100.00
2023-02-01T15:18:31.090Z,100.00
2023-02-01T15:21:32.781Z,100.00
2023-02-01T15:24:34.658Z,100.00
2023-02-01T15:27:37.214Z,100.00
2023-02-01T15:30:40.283Z,100.00
2023-02-01T15:33:57.443Z,100.00
2023-02-01T15:37:05.356Z,100.00
2023-02-01T15:40:19.212Z,100.00
2023-02-01T15:43:20.975Z,100.00
2023-02-01T15:46:23.772Z,100.00
2023-02-01T15:49:28.557Z,100.00
2023-02-01T15:52:35.413Z,100.00
2023-02-01T15:55:42.157Z,100.00
2023-02-01T15:58:47.894Z,100.00
2023-02-01T16:01:49.891Z,100.00
2023-02-01T16:04:54.994Z,100.00
2023-02-01T16:07:58.205Z,100.00
2023-02-01T16:11:15.557Z,100.00
2023-02-01T16:14:17.379Z,100.00
2023-02-01T16:17:18.850Z,100.00
2023-02-01T16:20:24.797Z,100.00
2023-02-01T16:23:27.195Z,100.00
2023-02-01T16:26:28.803Z,100.00
2023-02-01T16:29:30.391Z,100.00
2023-02-01T16:32:31.935Z,100.00
2023-02-01T16:35:39.138Z,100.00
2023-02-01T16:38:40.718Z,100.00
2023-02-01T16:41:42.345Z,100.00
2023-02-01T16:44:44.361Z,100.00
2023-02-01T16:47:49.221Z,100.00
2023-02-01T16:50:53.517Z,100.00
2023-02-01T16:53:55.315Z,100.00
2023-02-01T16:56:57.084Z,100.00
2023-02-01T16:59:59.921Z,100.00
2023-02-01T17:03:02.083Z,100.00
2023-02-01T17:06:05.736Z,100.00
2023-02-01T17:09:07.366Z,100.00
2023-02-01T17:12:17.604Z,100.00
2023-02-01T17:15:19.688Z,100.00
2023-02-01T17:18:21.611Z,100.00
2023-02-01T17:21:25.230Z,100.00
2023-02-01T17:24:35.672Z,100.00
2023-02-01T17:27:42.013Z,100.00
2023-02-01T17:30:43.749Z,100.00
2023-02-01T17:33:45.407Z,100.00
2023-02-01T17:36:48.819Z,100.00
2023-02-01T17:39:56.094Z,100.00
2023-02-01T17:42:58.038Z,100.00
2023-02-01T17:46:01.596Z,100.00
2023-02-01T17:49:03.877Z,100.00
2023-02-01T17:52:08.808Z,100.00
2023-02-01T17:55:16.035Z,100.00
2023-02-01T17:58:18.378Z,100.00
2023-02-01T18:01:21.196Z,100.00
2023-02-01T18:04:22.819Z,100.00
2023-02-01T18:07:26.047Z,100.00
2023-02-01T18:10:27.586Z,100.00
2023-02-01T18:13:29.804Z,100.00
2023-02-01T18:16:32.102Z,100.00
2023-02-01T18:19:34.988Z,100.00
2023-02-01T18:22:38.019Z,100.00
2023-02-01T18:25:39.689Z,100.00
2023-02-01T18:28:42.574Z,100.00
2023-02-01T18:31:45.681Z,100.00
2023-02-01T18:34:47.292Z,100.00
2023-02-01T18:37:51.186Z,100.00
2023-02-01T18:40:53.489Z,100.00
2023-02-01T18:43:55.104Z,100.00
2023-02-01T18:46:57.271Z,100.00
2023-02-01T18:49:58.822Z,100.00
2023-02-01T18:53:03.263Z,100.00
2023-02-01T18:56:05.641Z,100.00
2023-02-01T18:59:07.316Z,100.00
2023-02-01T19:02:10.366Z,100.00
2023-02-01T19:05:12.494Z,100.00
2023-02-01T19:08:15.586Z,100.00
2023-02-01T19:11:17.164Z,100.00
2023-02-01T19:14:18.813Z,100.00
2023-02-01T19:17:20.794Z,100.00
2023-02-01T19:20:23.348Z,100.00
2023-02-01T19:23:26.414Z,100.00
2023-02-01T19:26:28.046Z,100.00
2023-02-01T19:29:31.798Z,100.00
2023-02-01T19:32:33.379Z,100.00
2023-02-01T19:35:35.164Z,100.00
2023-02-01T19:38:38.598Z,100.00
2023-02-01T19:41:40.153Z,100.00
2023-02-01T19:44:42.018Z,100.00
2023-02-01T19:47:43.640Z,100.00
2023-02-01T19:50:45.804Z,100.00
2023-02-01T19:53:48.870Z,100.00
2023-02-01T19:56:51.254Z,100.00
2023-02-01T20:07:55.990Z,100.00
2023-02-01T20:10:59.183Z,100.00
2023-02-01T20:14:00.987Z,100.00
2023-02-01T20:17:02.821Z,100.00
2023-02-01T20:20:04.666Z,100.00
2023-02-01T20:23:06.842Z,100.00
2023-02-01T20:26:12.176Z,100.00
2023-02-01T20:29:13.816Z,100.00
2023-02-01T20:32:15.560Z,100.00
2023-02-01T20:35:17.508Z,100.00
2023-02-01T20:38:19.293Z,100.00
2023-02-01T20:41:23.900Z,100.00
2023-02-01T20:44:25.693Z,100.00
2023-02-01T20:47:27.520Z,100.00
2023-02-01T20:50:29.437Z,100.00
2023-02-01T20:53:32.942Z,100.00
2023-02-01T20:56:39.347Z,100.00
2023-02-01T20:59:40.970Z,100.00
2023-02-01T21:02:42.518Z,100.00
2023-02-01T21:05:46.950Z,100.00
2023-02-01T21:08:48.801Z,99.74
2023-02-01T21:11:52.247Z,100.00
2023-02-01T21:14:55.317Z,99.68
2023-02-01T21:17:57.264Z,99.02
2023-02-01T21:21:04.013Z,99.45
2023-02-01T21:24:05.965Z,98.92
2023-02-01T21:27:09.237Z,98.56
2023-02-01T21:30:11.506Z,98.23
2023-02-01T21:33:13.060Z,97.95
2023-02-01T21:36:19.210Z,98.31
2023-02-01T21:39:20.891Z,98.31
2023-02-01T21:42:26.548Z,98.51
2023-02-01T21:45:28.077Z,98.71
2023-02-01T21:48:30.162Z,98.49
2023-02-01T21:51:51.774Z,98.76
2023-02-01T21:54:59.400Z,99.18
2023-02-01T21:58:02.556Z,99.40
2023-02-01T22:01:04.332Z,99.58
2023-02-01T22:04:06.495Z,99.99
2023-02-01T22:07:08.234Z,100.00
2023-02-01T22:10:10.259Z,100.00
2023-02-01T22:13:13.456Z,100.00
2023-02-01T22:16:18.077Z,100.00
2023-02-01T22:19:19.883Z,100.00
2023-02-01T22:22:21.475Z,100.00
2023-02-01T22:25:24.739Z,100.00
2023-02-01T22:28:33.039Z,100.00
2023-02-01T22:31:35.406Z,100.00
2023-02-01T22:34:37.265Z,100.00
2023-02-01T22:37:39.125Z,99.95
2023-02-01T22:40:40.764Z,99.75
2023-02-01T22:43:44.157Z,99.22
2023-02-01T22:46:45.735Z,98.71
2023-02-01T22:49:47.265Z,98.91
2023-02-01T22:52:48.887Z,96.76
2023-02-01T22:55:51.972Z,96.12
2023-02-01T22:58:56.127Z,96.27
2023-02-01T23:01:57.683Z,95.06
2023-02-01T23:04:59.351Z,95.35
2023-02-01T23:08:01.217Z,95.07
2023-02-01T23:11:05.009Z,94.31
2023-02-01T23:14:08.400Z,94.18
2023-02-01T23:17:10.049Z,94.04
2023-02-01T23:20:14.511Z,94.83
2023-02-01T23:23:16.238Z,94.53
2023-02-01T23:26:18.350Z,94.83
2023-02-01T23:29:21.322Z,95.10
2023-02-01T23:32:22.810Z,95.72
2023-02-01T23:35:24.806Z,95.89
2023-02-01T23:38:27.560Z,95.26
2023-02-01T23:41:30.185Z,96.01
2023-02-01T23:44:33.283Z,96.39
2023-02-01T23:47:34.864Z,96.32
2023-02-01T23:50:36.453Z,97.33
2023-02-01T23:53:38.395Z,97.64
2023-02-01T23:56:40.901Z,98.04
2023-02-01T23:59:44.059Z,98.31
